sensor_id;sensor_type;location;lat;lon;timestamp;P1;durP1;ratioP1;P2;durP2;ratioP2
33802;SDS011;20110;53.120;5.786;2023-05-13T00:01:55;18.40;;;13.40;;
33802;SDS011;20110;53.120;5.786;2023-05-13T00:04:21;20.40;;;13.80;;
33802;SDS011;20110;53.120;5.786;2023-05-13T00:06:46;27.20;;;13.90;;
33802;SDS011;20110;53.120;5.786;2023-05-13T00:09:13;19.60;;;14.00;;
33802;SDS011;20110;53.120;5.786;2023-05-13T00:11:39;19.42;;;13.50;;
33802;SDS011;20110;53.120;5.786;2023-05-13T00:14:05;19.55;;;14.63;;
33802;SDS011;20110;53.120;5.786;2023-05-13T00:16:33;23.80;;;13.18;;
33802;SDS011;20110;53.120;5.786;2023-05-13T00:19:00;20.08;;;13.57;;
33802;SDS011;20110;53.120;5.786;2023-05-13T00:21:25;28.05;;;14.15;;
33802;SDS011;20110;53.120;5.786;2023-05-13T00:23:51;19.23;;;13.73;;
33802;SDS011;20110;53.120;5.786;2023-05-13T00:26:17;19.60;;;14.45;;
33802;SDS011;20110;53.120;5.786;2023-05-13T00:28:43;21.40;;;15.82;;
33802;SDS011;20110;53.120;5.786;2023-05-13T00:31:11;25.33;;;15.40;;
33802;SDS011;20110;53.120;5.786;2023-05-13T00:33:37;30.27;;;16.25;;
33802;SDS011;20110;53.120;5.786;2023-05-13T00:36:03;23.23;;;15.98;;
33802;SDS011;20110;53.120;5.786;2023-05-13T00:38:36;22.13;;;15.52;;
33802;SDS011;20110;53.120;5.786;2023-05-13T00:41:02;20.95;;;16.08;;
33802;SDS011;20110;53.120;5.786;2023-05-13T00:43:30;25.60;;;15.52;;
33802;SDS011;20110;53.120;5.786;2023-05-13T00:45:56;32.38;;;16.48;;
33802;SDS011;20110;53.120;5.786;2023-05-13T00:48:22;23.77;;;15.48;;
33802;SDS011;20110;53.120;5.786;2023-05-13T00:50:49;25.67;;;16.50;;
33802;SDS011;20110;53.120;5.786;2023-05-13T00:53:15;21.55;;;15.68;;
33802;SDS011;20110;53.120;5.786;2023-05-13T00:55:42;21.70;;;15.93;;
33802;SDS011;20110;53.120;5.786;2023-05-13T00:58:10;27.92;;;15.63;;
33802;SDS011;20110;53.120;5.786;2023-05-13T01:00:38;20.35;;;16.25;;
33802;SDS011;20110;53.120;5.786;2023-05-13T01:03:18;30.70;;;16.33;;
33802;SDS011;20110;53.120;5.786;2023-05-13T01:06:03;22.70;;;15.18;;
33802;SDS011;20110;53.120;5.786;2023-05-13T01:11:37;23.55;;;16.52;;
33802;SDS011;20110;53.120;5.786;2023-05-13T01:14:10;31.38;;;16.50;;
33802;SDS011;20110;53.120;5.786;2023-05-13T01:16:49;19.17;;;14.60;;
33802;SDS011;20110;53.120;5.786;2023-05-13T01:19:37;22.13;;;14.10;;
33802;SDS011;20110;53.120;5.786;2023-05-13T01:22:12;28.48;;;15.48;;
33802;SDS011;20110;53.120;5.786;2023-05-13T01:24:38;28.08;;;13.70;;
33802;SDS011;20110;53.120;5.786;2023-05-13T01:27:04;18.48;;;12.93;;
33802;SDS011;20110;53.120;5.786;2023-05-13T01:29:31;25.20;;;14.43;;
33802;SDS011;20110;53.120;5.786;2023-05-13T01:31:59;18.85;;;13.43;;
33802;SDS011;20110;53.120;5.786;2023-05-13T01:34:26;25.48;;;13.77;;
33802;SDS011;20110;53.120;5.786;2023-05-13T01:36:55;19.42;;;13.73;;
33802;SDS011;20110;53.120;5.786;2023-05-13T01:39:23;20.10;;;12.55;;
33802;SDS011;20110;53.120;5.786;2023-05-13T01:41:50;19.13;;;13.45;;
33802;SDS011;20110;53.120;5.786;2023-05-13T01:44:17;18.20;;;13.82;;
33802;SDS011;20110;53.120;5.786;2023-05-13T01:46:43;19.25;;;13.65;;
33802;SDS011;20110;53.120;5.786;2023-05-13T01:49:09;24.50;;;13.50;;
33802;SDS011;20110;53.120;5.786;2023-05-13T01:51:35;18.27;;;13.60;;
33802;SDS011;20110;53.120;5.786;2023-05-13T01:54:03;28.73;;;12.98;;
33802;SDS011;20110;53.120;5.786;2023-05-13T01:56:29;19.63;;;13.00;;
33802;SDS011;20110;53.120;5.786;2023-05-13T01:58:55;17.50;;;13.07;;
33802;SDS011;20110;53.120;5.786;2023-05-13T02:01:21;15.50;;;12.82;;
33802;SDS011;20110;53.120;5.786;2023-05-13T02:03:48;16.13;;;12.70;;
33802;SDS011;20110;53.120;5.786;2023-05-13T02:06:14;20.02;;;13.00;;
33802;SDS011;20110;53.120;5.786;2023-05-13T02:08:40;17.20;;;12.73;;
33802;SDS011;20110;53.120;5.786;2023-05-13T02:11:07;24.00;;;13.30;;
33802;SDS011;20110;53.120;5.786;2023-05-13T02:13:32;17.67;;;12.93;;
33802;SDS011;20110;53.120;5.786;2023-05-13T02:15:58;15.98;;;13.15;;
33802;SDS011;20110;53.120;5.786;2023-05-13T02:18:24;24.42;;;13.10;;
33802;SDS011;20110;53.120;5.786;2023-05-13T02:20:50;20.48;;;13.65;;
33802;SDS011;20110;53.120;5.786;2023-05-13T02:23:16;22.88;;;14.25;;
33802;SDS011;20110;53.120;5.786;2023-05-13T02:25:43;20.90;;;14.13;;
33802;SDS011;20110;53.120;5.786;2023-05-13T02:28:09;26.25;;;15.10;;
33802;SDS011;20110;53.120;5.786;2023-05-13T02:30:35;27.67;;;14.85;;
33802;SDS011;20110;53.120;5.786;2023-05-13T02:33:01;21.25;;;14.23;;
33802;SDS011;20110;53.120;5.786;2023-05-13T02:35:27;20.60;;;14.70;;
33802;SDS011;20110;53.120;5.786;2023-05-13T02:37:56;28.13;;;15.73;;
33802;SDS011;20110;53.120;5.786;2023-05-13T02:40:22;22.60;;;15.20;;
33802;SDS011;20110;53.120;5.786;2023-05-13T02:42:48;22.55;;;14.55;;
33802;SDS011;20110;53.120;5.786;2023-05-13T02:45:15;25.40;;;16.45;;
33802;SDS011;20110;53.120;5.786;2023-05-13T02:47:41;21.90;;;16.50;;
33802;SDS011;20110;53.120;5.786;2023-05-13T02:50:07;26.13;;;15.95;;
33802;SDS011;20110;53.120;5.786;2023-05-13T02:52:34;22.00;;;15.57;;
33802;SDS011;20110;53.120;5.786;2023-05-13T02:55:01;22.15;;;15.00;;
33802;SDS011;20110;53.120;5.786;2023-05-13T02:57:27;24.83;;;15.82;;
33802;SDS011;20110;53.120;5.786;2023-05-13T02:59:53;24.90;;;15.88;;
33802;SDS011;20110;53.120;5.786;2023-05-13T03:02:19;26.20;;;16.50;;
33802;SDS011;20110;53.120;5.786;2023-05-13T03:04:45;22.02;;;15.82;;
33802;SDS011;20110;53.120;5.786;2023-05-13T03:07:11;26.38;;;16.38;;
33802;SDS011;20110;53.120;5.786;2023-05-13T03:09:37;24.83;;;15.85;;
33802;SDS011;20110;53.120;5.786;2023-05-13T03:12:06;33.92;;;17.33;;
33802;SDS011;20110;53.120;5.786;2023-05-13T03:14:33;27.92;;;16.67;;
33802;SDS011;20110;53.120;5.786;2023-05-13T03:17:01;30.58;;;18.08;;
33802;SDS011;20110;53.120;5.786;2023-05-13T03:19:27;32.20;;;18.23;;
33802;SDS011;20110;53.120;5.786;2023-05-13T03:21:53;36.92;;;17.77;;
33802;SDS011;20110;53.120;5.786;2023-05-13T03:24:19;38.92;;;19.63;;
33802;SDS011;20110;53.120;5.786;2023-05-13T03:26:45;34.65;;;17.00;;
33802;SDS011;20110;53.120;5.786;2023-05-13T03:29:11;31.42;;;18.55;;
33802;SDS011;20110;53.120;5.786;2023-05-13T03:31:37;26.55;;;17.90;;
33802;SDS011;20110;53.120;5.786;2023-05-13T03:34:03;29.90;;;18.17;;
33802;SDS011;20110;53.120;5.786;2023-05-13T03:36:29;31.90;;;18.45;;
33802;SDS011;20110;53.120;5.786;2023-05-13T03:38:56;29.35;;;19.08;;
33802;SDS011;20110;53.120;5.786;2023-05-13T03:41:22;34.20;;;19.15;;
33802;SDS011;20110;53.120;5.786;2023-05-13T03:43:48;34.92;;;20.20;;
33802;SDS011;20110;53.120;5.786;2023-05-13T03:46:13;38.22;;;19.98;;
33802;SDS011;20110;53.120;5.786;2023-05-13T03:48:40;47.33;;;19.30;;
33802;SDS011;20110;53.120;5.786;2023-05-13T03:51:06;33.00;;;21.08;;
33802;SDS011;20110;53.120;5.786;2023-05-13T03:53:32;34.67;;;21.27;;
33802;SDS011;20110;53.120;5.786;2023-05-13T03:55:57;32.10;;;19.85;;
33802;SDS011;20110;53.120;5.786;2023-05-13T03:58:23;35.92;;;20.67;;
33802;SDS011;20110;53.120;5.786;2023-05-13T04:00:49;36.30;;;21.80;;
33802;SDS011;20110;53.120;5.786;2023-05-13T04:03:15;38.47;;;21.48;;
33802;SDS011;20110;53.120;5.786;2023-05-13T04:05:42;37.05;;;21.58;;
33802;SDS011;20110;53.120;5.786;2023-05-13T04:08:11;37.47;;;19.85;;
33802;SDS011;20110;53.120;5.786;2023-05-13T04:10:38;36.97;;;20.25;;
33802;SDS011;20110;53.120;5.786;2023-05-13T04:13:04;30.98;;;19.15;;
33802;SDS011;20110;53.120;5.786;2023-05-13T04:15:31;38.38;;;18.55;;
33802;SDS011;20110;53.120;5.786;2023-05-13T04:17:57;30.63;;;18.50;;
33802;SDS011;20110;53.120;5.786;2023-05-13T04:20:25;30.80;;;18.60;;
33802;SDS011;20110;53.120;5.786;2023-05-13T04:22:51;29.00;;;19.38;;
33802;SDS011;20110;53.120;5.786;2023-05-13T04:25:17;31.80;;;18.77;;
33802;SDS011;20110;53.120;5.786;2023-05-13T04:27:43;27.20;;;17.17;;
33802;SDS011;20110;53.120;5.786;2023-05-13T04:30:11;33.83;;;16.73;;
33802;SDS011;20110;53.120;5.786;2023-05-13T04:32:37;31.05;;;15.98;;
33802;SDS011;20110;53.120;5.786;2023-05-13T04:35:07;25.35;;;15.57;;
33802;SDS011;20110;53.120;5.786;2023-05-13T04:37:34;25.30;;;15.05;;
33802;SDS011;20110;53.120;5.786;2023-05-13T04:40:00;31.60;;;16.25;;
33802;SDS011;20110;53.120;5.786;2023-05-13T04:42:26;21.80;;;14.13;;
33802;SDS011;20110;53.120;5.786;2023-05-13T04:44:52;21.10;;;14.18;;
33802;SDS011;20110;53.120;5.786;2023-05-13T04:47:17;21.13;;;13.00;;
33802;SDS011;20110;53.120;5.786;2023-05-13T04:49:44;20.77;;;14.10;;
33802;SDS011;20110;53.120;5.786;2023-05-13T04:52:10;18.25;;;13.77;;
33802;SDS011;20110;53.120;5.786;2023-05-13T04:54:40;18.38;;;13.77;;
33802;SDS011;20110;53.120;5.786;2023-05-13T04:57:06;21.75;;;13.23;;
33802;SDS011;20110;53.120;5.786;2023-05-13T04:59:32;26.90;;;14.10;;
33802;SDS011;20110;53.120;5.786;2023-05-13T05:01:59;16.63;;;12.82;;
33802;SDS011;20110;53.120;5.786;2023-05-13T05:04:25;19.90;;;11.98;;
33802;SDS011;20110;53.120;5.786;2023-05-13T05:06:52;15.77;;;11.65;;
33802;SDS011;20110;53.120;5.786;2023-05-13T05:09:18;22.42;;;10.82;;
33802;SDS011;20110;53.120;5.786;2023-05-13T05:11:44;16.48;;;10.13;;
33802;SDS011;20110;53.120;5.786;2023-05-13T05:14:10;18.30;;;10.18;;
33802;SDS011;20110;53.120;5.786;2023-05-13T05:16:36;14.65;;;10.27;;
33802;SDS011;20110;53.120;5.786;2023-05-13T05:19:02;13.75;;;9.63;;
33802;SDS011;20110;53.120;5.786;2023-05-13T05:21:27;12.80;;;9.15;;
33802;SDS011;20110;53.120;5.786;2023-05-13T05:23:53;22.55;;;9.82;;
33802;SDS011;20110;53.120;5.786;2023-05-13T05:26:19;25.98;;;10.55;;
33802;SDS011;20110;53.120;5.786;2023-05-13T05:28:46;13.80;;;9.55;;
33802;SDS011;20110;53.120;5.786;2023-05-13T05:31:12;17.08;;;9.57;;
33802;SDS011;20110;53.120;5.786;2023-05-13T05:33:38;12.68;;;9.85;;
33802;SDS011;20110;53.120;5.786;2023-05-13T05:36:05;16.05;;;9.80;;
33802;SDS011;20110;53.120;5.786;2023-05-13T05:38:32;13.43;;;9.00;;
33802;SDS011;20110;53.120;5.786;2023-05-13T05:40:57;10.60;;;8.95;;
33802;SDS011;20110;53.120;5.786;2023-05-13T05:43:24;15.13;;;8.77;;
33802;SDS011;20110;53.120;5.786;2023-05-13T05:45:51;11.77;;;9.05;;
33802;SDS011;20110;53.120;5.786;2023-05-13T05:48:16;12.02;;;9.82;;
33802;SDS011;20110;53.120;5.786;2023-05-13T05:50:42;13.57;;;9.27;;
33802;SDS011;20110;53.120;5.786;2023-05-13T05:53:08;19.83;;;9.57;;
33802;SDS011;20110;53.120;5.786;2023-05-13T05:55:34;13.00;;;8.35;;
33802;SDS011;20110;53.120;5.786;2023-05-13T05:58:03;13.18;;;8.95;;
33802;SDS011;20110;53.120;5.786;2023-05-13T06:00:30;11.98;;;8.27;;
33802;SDS011;20110;53.120;5.786;2023-05-13T06:02:57;13.40;;;7.88;;
33802;SDS011;20110;53.120;5.786;2023-05-13T06:05:24;11.90;;;8.30;;
33802;SDS011;20110;53.120;5.786;2023-05-13T06:07:51;12.02;;;8.43;;
33802;SDS011;20110;53.120;5.786;2023-05-13T06:10:17;14.68;;;8.13;;
33802;SDS011;20110;53.120;5.786;2023-05-13T06:12:43;10.38;;;7.57;;
33802;SDS011;20110;53.120;5.786;2023-05-13T06:15:09;14.93;;;8.15;;
33802;SDS011;20110;53.120;5.786;2023-05-13T06:17:36;20.15;;;8.02;;
33802;SDS011;20110;53.120;5.786;2023-05-13T06:20:02;10.32;;;7.93;;
33802;SDS011;20110;53.120;5.786;2023-05-13T06:22:30;12.65;;;7.70;;
33802;SDS011;20110;53.120;5.786;2023-05-13T06:24:56;10.02;;;7.20;;
33802;SDS011;20110;53.120;5.786;2023-05-13T06:27:22;14.55;;;7.43;;
33802;SDS011;20110;53.120;5.786;2023-05-13T06:29:47;12.68;;;7.60;;
33802;SDS011;20110;53.120;5.786;2023-05-13T06:32:13;7.90;;;7.10;;
33802;SDS011;20110;53.120;5.786;2023-05-13T06:34:40;9.00;;;7.35;;
33802;SDS011;20110;53.120;5.786;2023-05-13T06:37:13;14.52;;;7.28;;
33802;SDS011;20110;53.120;5.786;2023-05-13T06:39:39;11.25;;;7.15;;
33802;SDS011;20110;53.120;5.786;2023-05-13T06:42:05;13.50;;;7.18;;
33802;SDS011;20110;53.120;5.786;2023-05-13T06:44:31;8.50;;;6.57;;
33802;SDS011;20110;53.120;5.786;2023-05-13T06:46:57;12.02;;;6.57;;
33802;SDS011;20110;53.120;5.786;2023-05-13T06:49:22;8.75;;;6.68;;
33802;SDS011;20110;53.120;5.786;2023-05-13T06:51:49;11.27;;;6.30;;
33802;SDS011;20110;53.120;5.786;2023-05-13T06:54:15;7.55;;;6.82;;
33802;SDS011;20110;53.120;5.786;2023-05-13T06:56:41;12.60;;;6.80;;
33802;SDS011;20110;53.120;5.786;2023-05-13T06:59:07;10.73;;;7.30;;
33802;SDS011;20110;53.120;5.786;2023-05-13T07:01:33;12.43;;;7.28;;
33802;SDS011;20110;53.120;5.786;2023-05-13T07:03:59;10.32;;;7.07;;
33802;SDS011;20110;53.120;5.786;2023-05-13T07:06:25;7.28;;;6.30;;
33802;SDS011;20110;53.120;5.786;2023-05-13T07:08:50;8.25;;;6.70;;
33802;SDS011;20110;53.120;5.786;2023-05-13T07:11:16;9.27;;;6.63;;
33802;SDS011;20110;53.120;5.786;2023-05-13T07:13:42;9.23;;;6.28;;
33802;SDS011;20110;53.120;5.786;2023-05-13T07:16:08;13.07;;;6.30;;
33802;SDS011;20110;53.120;5.786;2023-05-13T07:18:34;12.35;;;6.00;;
33802;SDS011;20110;53.120;5.786;2023-05-13T07:21:00;9.25;;;5.78;;
33802;SDS011;20110;53.120;5.786;2023-05-13T07:23:26;10.43;;;5.88;;
33802;SDS011;20110;53.120;5.786;2023-05-13T07:25:52;7.88;;;5.90;;
33802;SDS011;20110;53.120;5.786;2023-05-13T07:28:18;9.05;;;5.13;;
33802;SDS011;20110;53.120;5.786;2023-05-13T07:30:47;10.45;;;5.80;;
33802;SDS011;20110;53.120;5.786;2023-05-13T07:33:12;8.82;;;5.82;;
33802;SDS011;20110;53.120;5.786;2023-05-13T07:35:38;20.27;;;5.47;;
33802;SDS011;20110;53.120;5.786;2023-05-13T07:38:05;10.00;;;5.93;;
33802;SDS011;20110;53.120;5.786;2023-05-13T07:40:35;9.88;;;5.57;;
33802;SDS011;20110;53.120;5.786;2023-05-13T07:43:01;14.15;;;4.85;;
33802;SDS011;20110;53.120;5.786;2023-05-13T07:45:26;8.63;;;6.07;;
33802;SDS011;20110;53.120;5.786;2023-05-13T07:47:53;10.35;;;5.82;;
33802;SDS011;20110;53.120;5.786;2023-05-13T07:50:19;7.78;;;5.22;;
33802;SDS011;20110;53.120;5.786;2023-05-13T07:52:45;9.98;;;4.78;;
33802;SDS011;20110;53.120;5.786;2023-05-13T07:55:13;11.75;;;5.38;;
33802;SDS011;20110;53.120;5.786;2023-05-13T07:57:39;7.95;;;4.80;;
33802;SDS011;20110;53.120;5.786;2023-05-13T08:00:05;7.70;;;5.13;;
33802;SDS011;20110;53.120;5.786;2023-05-13T08:02:32;7.95;;;4.82;;
33802;SDS011;20110;53.120;5.786;2023-05-13T08:04:59;8.52;;;4.47;;
33802;SDS011;20110;53.120;5.786;2023-05-13T08:07:26;5.60;;;4.75;;
33802;SDS011;20110;53.120;5.786;2023-05-13T08:09:52;7.25;;;4.75;;
33802;SDS011;20110;53.120;5.786;2023-05-13T08:12:18;9.80;;;5.18;;
33802;SDS011;20110;53.120;5.786;2023-05-13T08:14:44;7.57;;;4.80;;
33802;SDS011;20110;53.120;5.786;2023-05-13T08:17:09;10.50;;;5.30;;
33802;SDS011;20110;53.120;5.786;2023-05-13T08:19:36;6.40;;;4.43;;
33802;SDS011;20110;53.120;5.786;2023-05-13T08:22:02;13.75;;;5.03;;
33802;SDS011;20110;53.120;5.786;2023-05-13T08:24:28;6.35;;;4.80;;
33802;SDS011;20110;53.120;5.786;2023-05-13T08:26:54;12.32;;;4.88;;
33802;SDS011;20110;53.120;5.786;2023-05-13T08:29:20;8.82;;;4.70;;
33802;SDS011;20110;53.120;5.786;2023-05-13T08:31:46;7.70;;;4.47;;
33802;SDS011;20110;53.120;5.786;2023-05-13T08:34:12;9.38;;;4.53;;
33802;SDS011;20110;53.120;5.786;2023-05-13T08:36:38;7.63;;;4.70;;
33802;SDS011;20110;53.120;5.786;2023-05-13T08:39:03;7.97;;;5.22;;
33802;SDS011;20110;53.120;5.786;2023-05-13T08:41:29;7.38;;;4.85;;
33802;SDS011;20110;53.120;5.786;2023-05-13T08:43:56;5.28;;;4.78;;
33802;SDS011;20110;53.120;5.786;2023-05-13T08:46:23;8.52;;;4.72;;
33802;SDS011;20110;53.120;5.786;2023-05-13T08:48:56;11.10;;;5.00;;
33802;SDS011;20110;53.120;5.786;2023-05-13T08:51:23;10.02;;;4.90;;
33802;SDS011;20110;53.120;5.786;2023-05-13T08:53:50;12.25;;;5.28;;
33802;SDS011;20110;53.120;5.786;2023-05-13T08:56:18;5.45;;;4.65;;
33802;SDS011;20110;53.120;5.786;2023-05-13T08:58:46;7.38;;;4.65;;
33802;SDS011;20110;53.120;5.786;2023-05-13T09:01:12;21.55;;;5.57;;
33802;SDS011;20110;53.120;5.786;2023-05-13T09:03:41;13.65;;;4.90;;
33802;SDS011;20110;53.120;5.786;2023-05-13T09:06:21;8.82;;;5.50;;
33802;SDS011;20110;53.120;5.786;2023-05-13T09:08:47;7.18;;;4.32;;
33802;SDS011;20110;53.120;5.786;2023-05-13T09:11:13;7.00;;;5.43;;
33802;SDS011;20110;53.120;5.786;2023-05-13T09:13:41;9.65;;;5.30;;
33802;SDS011;20110;53.120;5.786;2023-05-13T09:16:21;7.80;;;5.15;;
33802;SDS011;20110;53.120;5.786;2023-05-13T09:18:48;9.07;;;5.10;;
33802;SDS011;20110;53.120;5.786;2023-05-13T09:21:27;15.90;;;4.70;;
33802;SDS011;20110;53.120;5.786;2023-05-13T09:26:34;5.38;;;4.60;;
33802;SDS011;20110;53.120;5.786;2023-05-13T09:31:59;9.68;;;5.15;;
33802;SDS011;20110;53.120;5.786;2023-05-13T09:34:30;8.38;;;4.97;;
33802;SDS011;20110;53.120;5.786;2023-05-13T09:37:02;4.97;;;4.55;;
33802;SDS011;20110;53.120;5.786;2023-05-13T09:39:39;7.45;;;4.85;;
33802;SDS011;20110;53.120;5.786;2023-05-13T09:42:16;6.43;;;4.97;;
33802;SDS011;20110;53.120;5.786;2023-05-13T09:44:44;6.55;;;5.03;;
33802;SDS011;20110;53.120;5.786;2023-05-13T09:47:13;13.25;;;5.28;;
33802;SDS011;20110;53.120;5.786;2023-05-13T09:49:41;12.55;;;4.88;;
33802;SDS011;20110;53.120;5.786;2023-05-13T09:52:10;9.80;;;5.00;;
33802;SDS011;20110;53.120;5.786;2023-05-13T09:54:40;10.63;;;5.68;;
33802;SDS011;20110;53.120;5.786;2023-05-13T09:57:08;6.07;;;5.47;;
33802;SDS011;20110;53.120;5.786;2023-05-13T09:59:38;11.75;;;5.43;;
33802;SDS011;20110;53.120;5.786;2023-05-13T10:02:06;10.05;;;5.18;;
33802;SDS011;20110;53.120;5.786;2023-05-13T10:04:32;9.45;;;5.18;;
33802;SDS011;20110;53.120;5.786;2023-05-13T10:07:00;9.25;;;5.30;;
33802;SDS011;20110;53.120;5.786;2023-05-13T10:09:29;7.80;;;5.10;;
33802;SDS011;20110;53.120;5.786;2023-05-13T10:12:02;10.25;;;5.05;;
33802;SDS011;20110;53.120;5.786;2023-05-13T10:14:31;6.38;;;4.90;;
33802;SDS011;20110;53.120;5.786;2023-05-13T10:16:58;5.38;;;4.78;;
33802;SDS011;20110;53.120;5.786;2023-05-13T10:19:25;9.82;;;5.55;;
33802;SDS011;20110;53.120;5.786;2023-05-13T10:21:51;12.13;;;5.43;;
33802;SDS011;20110;53.120;5.786;2023-05-13T10:24:18;8.48;;;5.38;;
33802;SDS011;20110;53.120;5.786;2023-05-13T10:26:46;9.85;;;5.75;;
33802;SDS011;20110;53.120;5.786;2023-05-13T10:29:16;8.10;;;5.65;;
33802;SDS011;20110;53.120;5.786;2023-05-13T10:31:43;8.48;;;5.63;;
33802;SDS011;20110;53.120;5.786;2023-05-13T10:34:11;6.75;;;5.38;;
33802;SDS011;20110;53.120;5.786;2023-05-13T10:46:03;5.75;;;5.15;;
33802;SDS011;20110;53.120;5.786;2023-05-13T10:48:48;5.05;;;4.65;;
33802;SDS011;20110;53.120;5.786;2023-05-13T10:51:21;6.82;;;5.28;;
33802;SDS011;20110;53.120;5.786;2023-05-13T10:53:53;6.90;;;5.82;;
33802;SDS011;20110;53.120;5.786;2023-05-13T10:56:22;9.38;;;5.53;;
33802;SDS011;20110;53.120;5.786;2023-05-13T10:59:00;6.18;;;5.18;;
33802;SDS011;20110;53.120;5.786;2023-05-13T11:01:37;9.02;;;5.60;;
33802;SDS011;20110;53.120;5.786;2023-05-13T11:04:16;8.25;;;5.32;;
33802;SDS011;20110;53.120;5.786;2023-05-13T11:06:44;8.75;;;5.40;;
33802;SDS011;20110;53.120;5.786;2023-05-13T11:09:36;8.65;;;5.35;;
33802;SDS011;20110;53.120;5.786;2023-05-13T11:12:02;8.65;;;5.72;;
33802;SDS011;20110;53.120;5.786;2023-05-13T11:14:29;6.13;;;4.95;;
33802;SDS011;20110;53.120;5.786;2023-05-13T11:19:24;5.65;;;5.07;;
33802;SDS011;20110;53.120;5.786;2023-05-13T11:21:54;9.90;;;5.68;;
33802;SDS011;20110;53.120;5.786;2023-05-13T11:24:23;8.32;;;5.40;;
33802;SDS011;20110;53.120;5.786;2023-05-13T11:26:54;11.85;;;6.25;;
33802;SDS011;20110;53.120;5.786;2023-05-13T11:32:00;7.50;;;6.68;;
33802;SDS011;20110;53.120;5.786;2023-05-13T11:34:29;7.47;;;6.05;;
33802;SDS011;20110;53.120;5.786;2023-05-13T11:37:05;9.50;;;6.68;;
33802;SDS011;20110;53.120;5.786;2023-05-13T11:39:34;11.40;;;6.57;;
33802;SDS011;20110;53.120;5.786;2023-05-13T11:42:05;5.75;;;5.03;;
33802;SDS011;20110;53.120;5.786;2023-05-13T11:44:34;7.28;;;5.95;;
33802;SDS011;20110;53.120;5.786;2023-05-13T11:47:02;8.85;;;5.40;;
33802;SDS011;20110;53.120;5.786;2023-05-13T11:49:45;10.15;;;6.22;;
33802;SDS011;20110;53.120;5.786;2023-05-13T11:52:12;6.53;;;4.75;;
33802;SDS011;20110;53.120;5.786;2023-05-13T11:54:41;9.65;;;5.90;;
33802;SDS011;20110;53.120;5.786;2023-05-13T11:59:57;8.02;;;5.07;;
33802;SDS011;20110;53.120;5.786;2023-05-13T12:02:34;6.50;;;5.03;;
33802;SDS011;20110;53.120;5.786;2023-05-13T12:05:03;8.60;;;5.07;;
33802;SDS011;20110;53.120;5.786;2023-05-13T12:07:31;8.45;;;4.53;;
33802;SDS011;20110;53.120;5.786;2023-05-13T12:09:59;6.03;;;5.15;;
33802;SDS011;20110;53.120;5.786;2023-05-13T12:12:28;13.77;;;6.03;;
33802;SDS011;20110;53.120;5.786;2023-05-13T12:14:57;8.63;;;6.35;;
33802;SDS011;20110;53.120;5.786;2023-05-13T12:17:26;6.43;;;5.05;;
33802;SDS011;20110;53.120;5.786;2023-05-13T12:28:16;5.95;;;4.07;;
33802;SDS011;20110;53.120;5.786;2023-05-13T12:30:48;7.03;;;4.40;;
33802;SDS011;20110;53.120;5.786;2023-05-13T12:33:27;10.15;;;3.25;;
33802;SDS011;20110;53.120;5.786;2023-05-13T12:36:17;6.38;;;3.90;;
33802;SDS011;20110;53.120;5.786;2023-05-13T12:39:06;8.57;;;3.22;;
33802;SDS011;20110;53.120;5.786;2023-05-13T12:41:36;6.75;;;4.13;;
33802;SDS011;20110;53.120;5.786;2023-05-13T12:44:08;7.28;;;4.03;;
33802;SDS011;20110;53.120;5.786;2023-05-13T12:46:38;8.02;;;3.45;;
33802;SDS011;20110;53.120;5.786;2023-05-13T12:49:18;5.63;;;4.15;;
33802;SDS011;20110;53.120;5.786;2023-05-13T12:51:44;6.80;;;3.90;;
33802;SDS011;20110;53.120;5.786;2023-05-13T12:54:10;6.15;;;4.03;;
33802;SDS011;20110;53.120;5.786;2023-05-13T12:56:37;5.00;;;3.35;;
33802;SDS011;20110;53.120;5.786;2023-05-13T12:59:06;5.50;;;3.83;;
33802;SDS011;20110;53.120;5.786;2023-05-13T13:01:33;9.27;;;3.95;;
33802;SDS011;20110;53.120;5.786;2023-05-13T13:04:02;4.90;;;3.40;;
33802;SDS011;20110;53.120;5.786;2023-05-13T13:06:28;7.13;;;3.95;;
33802;SDS011;20110;53.120;5.786;2023-05-13T13:08:54;4.55;;;4.15;;
33802;SDS011;20110;53.120;5.786;2023-05-13T13:11:20;6.93;;;4.07;;
33802;SDS011;20110;53.120;5.786;2023-05-13T13:13:47;4.40;;;3.75;;
33802;SDS011;20110;53.120;5.786;2023-05-13T13:16:14;6.45;;;3.45;;
33802;SDS011;20110;53.120;5.786;2023-05-13T13:18:40;5.28;;;3.63;;
33802;SDS011;20110;53.120;5.786;2023-05-13T13:21:06;4.90;;;3.70;;
33802;SDS011;20110;53.120;5.786;2023-05-13T13:23:33;8.73;;;3.88;;
33802;SDS011;20110;53.120;5.786;2023-05-13T13:25:59;9.65;;;5.75;;
33802;SDS011;20110;53.120;5.786;2023-05-13T13:28:25;6.65;;;3.50;;
33802;SDS011;20110;53.120;5.786;2023-05-13T13:30:52;6.53;;;3.85;;
33802;SDS011;20110;53.120;5.786;2023-05-13T13:33:19;6.80;;;4.35;;
33802;SDS011;20110;53.120;5.786;2023-05-13T13:35:45;9.40;;;6.28;;
33802;SDS011;20110;53.120;5.786;2023-05-13T13:38:13;9.95;;;5.57;;
33802;SDS011;20110;53.120;5.786;2023-05-13T13:40:39;7.65;;;6.53;;
33802;SDS011;20110;53.120;5.786;2023-05-13T13:43:05;6.50;;;4.75;;
33802;SDS011;20110;53.120;5.786;2023-05-13T13:45:32;8.23;;;4.85;;
33802;SDS011;20110;53.120;5.786;2023-05-13T13:47:58;13.10;;;5.38;;
33802;SDS011;20110;53.120;5.786;2023-05-13T13:50:24;9.13;;;6.00;;
33802;SDS011;20110;53.120;5.786;2023-05-13T13:52:51;12.95;;;6.47;;
33802;SDS011;20110;53.120;5.786;2023-05-13T13:55:20;5.72;;;5.18;;
33802;SDS011;20110;53.120;5.786;2023-05-13T13:57:47;7.88;;;3.75;;
33802;SDS011;20110;53.120;5.786;2023-05-13T14:00:14;5.63;;;4.40;;
33802;SDS011;20110;53.120;5.786;2023-05-13T14:02:41;10.65;;;3.70;;
33802;SDS011;20110;53.120;5.786;2023-05-13T14:05:07;10.57;;;4.13;;
33802;SDS011;20110;53.120;5.786;2023-05-13T14:07:34;11.07;;;4.85;;
33802;SDS011;20110;53.120;5.786;2023-05-13T14:10:01;8.45;;;3.83;;
33802;SDS011;20110;53.120;5.786;2023-05-13T14:12:28;12.68;;;3.70;;
33802;SDS011;20110;53.120;5.786;2023-05-13T14:14:55;5.10;;;3.75;;
33802;SDS011;20110;53.120;5.786;2023-05-13T14:17:21;7.35;;;4.35;;
33802;SDS011;20110;53.120;5.786;2023-05-13T14:19:47;6.43;;;3.40;;
33802;SDS011;20110;53.120;5.786;2023-05-13T14:22:15;4.05;;;3.13;;
33802;SDS011;20110;53.120;5.786;2023-05-13T14:24:42;14.80;;;4.47;;
33802;SDS011;20110;53.120;5.786;2023-05-13T14:27:08;8.98;;;3.78;;
33802;SDS011;20110;53.120;5.786;2023-05-13T14:29:33;12.63;;;4.22;;
33802;SDS011;20110;53.120;5.786;2023-05-13T14:31:59;7.10;;;4.47;;
33802;SDS011;20110;53.120;5.786;2023-05-13T14:34:27;8.35;;;4.72;;
33802;SDS011;20110;53.120;5.786;2023-05-13T14:36:52;13.68;;;4.88;;
33802;SDS011;20110;53.120;5.786;2023-05-13T14:39:18;6.07;;;3.85;;
33802;SDS011;20110;53.120;5.786;2023-05-13T14:41:44;6.18;;;4.28;;
33802;SDS011;20110;53.120;5.786;2023-05-13T14:44:10;12.23;;;4.65;;
33802;SDS011;20110;53.120;5.786;2023-05-13T14:46:37;6.60;;;3.83;;
33802;SDS011;20110;53.120;5.786;2023-05-13T14:49:05;6.72;;;3.90;;
33802;SDS011;20110;53.120;5.786;2023-05-13T14:51:34;10.23;;;4.72;;
33802;SDS011;20110;53.120;5.786;2023-05-13T14:54:00;6.30;;;4.32;;
33802;SDS011;20110;53.120;5.786;2023-05-13T14:56:26;8.15;;;4.78;;
33802;SDS011;20110;53.120;5.786;2023-05-13T14:58:52;8.07;;;4.53;;
33802;SDS011;20110;53.120;5.786;2023-05-13T15:01:18;8.57;;;4.47;;
33802;SDS011;20110;53.120;5.786;2023-05-13T15:03:44;6.05;;;4.53;;
33802;SDS011;20110;53.120;5.786;2023-05-13T15:06:10;7.55;;;3.97;;
33802;SDS011;20110;53.120;5.786;2023-05-13T15:08:36;16.95;;;5.28;;
33802;SDS011;20110;53.120;5.786;2023-05-13T15:11:02;17.80;;;5.10;;
33802;SDS011;20110;53.120;5.786;2023-05-13T15:13:28;8.13;;;5.38;;